Time;durP1;ratioP1;P1;durP2;ratioP2;P2;SDS_P1;SDS_P2;PMS_P1;PMS_P2;Temp;Humidity;BMP_temperature;BMP_pressure;BME280_temperature;BME280_humidity;BME280_pressure;Samples;Min_cycle;Max_cycle;Signal;HPM_P1;HPM_P2
2023/04/19 00:02:07;;;;;;;20.30;16.00;;;8.30;99.90;;;;;;5044798;28;20574;-85
2023/04/19 00:04:36;;;;;;;20.03;14.40;;;8.30;99.90;;;;;;5043604;28;20974;-85
2023/04/19 00:07:05;;;;;;;18.27;15.40;;;8.30;99.90;;;;;;5046628;28;20552;-86
2023/04/19 00:09:32;;;;;;;22.30;16.73;;;8.40;99.90;;;;;;5046332;28;20898;-85
2023/04/19 00:11:59;;;;;;;21.37;15.97;;;8.30;99.90;;;;;;5045396;28;20531;-85
2023/04/19 00:14:26;;;;;;;20.20;15.47;;;8.40;99.90;;;;;;5043054;28;20494;-85
2023/04/19 00:16:53;;;;;;;19.40;16.13;;;8.30;99.90;;;;;;5038688;28;21005;-86
2023/04/19 00:19:22;;;;;;;22.13;14.43;;;8.30;99.90;;;;;;5037235;28;20781;-86
2023/04/19 00:21:49;;;;;;;18.20;14.57;;;8.30;99.90;;;;;;5047700;28;20505;-85
2023/04/19 00:24:18;;;;;;;17.37;15.50;;;8.30;99.90;;;;;;5049853;28;20529;-86
2023/04/19 00:26:45;;;;;;;18.57;16.23;;;8.30;99.90;;;;;;5057925;28;20529;-86
2023/04/19 00:29:12;;;;;;;17.93;15.37;;;8.30;99.90;;;;;;5039297;28;20465;-85
2023/04/19 00:31:39;;;;;;;16.70;14.10;;;8.40;99.90;;;;;;5050052;28;20459;-86
2023/04/19 00:34:06;;;;;;;21.83;16.20;;;8.30;99.90;;;;;;5040283;28;20887;-85
2023/04/19 00:36:33;;;;;;;21.57;15.17;;;8.30;99.90;;;;;;5043211;28;20496;-86
2023/04/19 00:39:00;;;;;;;20.90;16.40;;;8.30;99.90;;;;;;5039128;28;20468;-86
2023/04/19 00:41:28;;;;;;;21.10;17.83;;;8.30;99.90;;;;;;5050905;28;20620;-85
2023/04/19 00:43:55;;;;;;;21.90;16.30;;;8.30;99.90;;;;;;5043868;28;20465;-85
2023/04/19 00:46:22;;;;;;;16.33;14.53;;;8.30;99.90;;;;;;5051100;28;20884;-86
2023/04/19 00:48:51;;;;;;;22.60;16.00;;;8.30;99.90;;;;;;5055763;28;20533;-86
2023/04/19 00:51:18;;;;;;;22.10;16.80;;;8.30;99.90;;;;;;5041573;28;20559;-86
2023/04/19 00:53:45;;;;;;;25.10;17.87;;;8.30;99.90;;;;;;5044141;28;20471;-85
2023/04/19 00:56:14;;;;;;;19.33;15.80;;;8.30;99.90;;;;;;5042793;28;20461;-85
2023/04/19 00:58:43;;;;;;;22.50;15.73;;;8.30;99.90;;;;;;5040438;28;20465;-85
2023/04/19 01:01:10;;;;;;;19.57;15.27;;;8.40;99.90;;;;;;5042792;28;20488;-85
2023/04/19 01:03:37;;;;;;;19.13;13.93;;;8.40;99.90;;;;;;5043754;28;20473;-85
2023/04/19 01:06:04;;;;;;;19.00;16.00;;;8.30;99.90;;;;;;5040740;28;20519;-85
2023/04/19 01:08:31;;;;;;;19.47;16.53;;;8.40;99.90;;;;;;5041417;28;20559;-85
2023/04/19 01:10:58;;;;;;;22.17;15.37;;;8.30;99.90;;;;;;5043346;28;20489;-85
2023/04/19 01:13:26;;;;;;;19.77;15.00;;;8.30;99.90;;;;;;5044440;28;20549;-85
2023/04/19 01:15:55;;;;;;;20.70;15.57;;;8.20;99.90;;;;;;5042537;28;20476;-85
2023/04/19 01:18:24;;;;;;;18.30;14.93;;;8.20;99.90;;;;;;5046389;28;20782;-85
2023/04/19 01:20:51;;;;;;;19.10;14.60;;;8.20;99.90;;;;;;5037794;28;20485;-86
2023/04/19 01:23:20;;;;;;;17.70;15.40;;;8.10;99.90;;;;;;5044208;28;20506;-85
2023/04/19 01:25:47;;;;;;;17.50;15.37;;;8.20;99.90;;;;;;5046444;28;20461;-85
2023/04/19 01:28:14;;;;;;;16.30;14.60;;;8.10;99.90;;;;;;5035919;28;20461;-85
2023/04/19 01:30:41;;;;;;;23.70;15.03;;;8.10;99.90;;;;;;5044051;28;21028;-85
2023/04/19 01:33:08;;;;;;;22.43;16.40;;;8.10;99.90;;;;;;5037882;28;20467;-85
2023/04/19 01:35:35;;;;;;;19.37;13.87;;;8.00;99.90;;;;;;5044786;28;20598;-85
2023/04/19 01:38:02;;;;;;;16.27;14.57;;;7.90;99.90;;;;;;5039072;28;20828;-85
2023/04/19 01:40:30;;;;;;;17.20;15.00;;;7.80;99.90;;;;;;5049421;28;20928;-85
2023/04/19 01:42:57;;;;;;;15.67;14.00;;;7.70;99.90;;;;;;5042861;28;20516;-86
2023/04/19 01:45:24;;;;;;;20.67;15.20;;;7.70;99.90;;;;;;5041148;28;20473;-86
2023/04/19 01:47:52;;;;;;;14.77;13.03;;;7.70;99.90;;;;;;5043528;28;20453;-85
2023/04/19 01:50:19;;;;;;;15.67;13.50;;;7.60;99.90;;;;;;5054703;28;20464;-85
2023/04/19 01:52:46;;;;;;;17.43;14.50;;;7.60;99.90;;;;;;5045092;28;20465;-85
2023/04/19 01:55:13;;;;;;;22.20;15.43;;;7.60;99.90;;;;;;5045650;28;20460;-85
2023/04/19 01:57:41;;;;;;;15.33;13.40;;;7.50;99.90;;;;;;5056567;28;20516;-85
2023/04/19 02:00:09;;;;;;;16.73;12.57;;;7.50;99.90;;;;;;5062679;28;20515;-85
2023/04/19 02:02:37;;;;;;;16.33;14.30;;;7.50;99.90;;;;;;5050885;28;20488;-85
2023/04/19 02:05:04;;;;;;;20.20;15.70;;;7.50;99.90;;;;;;5046807;28;20550;-85
2023/04/19 02:07:31;;;;;;;14.90;12.97;;;7.60;99.90;;;;;;5048285;28;20457;-85
2023/04/19 02:09:59;;;;;;;16.10;14.37;;;7.60;99.90;;;;;;5042616;28;21263;-85
2023/04/19 02:12:27;;;;;;;15.67;12.90;;;7.60;99.90;;;;;;5054599;28;20475;-85
2023/04/19 02:14:56;;;;;;;17.43;13.33;;;7.50;99.90;;;;;;5038972;28;20468;-85
2023/04/19 02:17:23;;;;;;;15.10;12.93;;;7.40;99.90;;;;;;5048538;28;20469;-85
2023/04/19 02:19:50;;;;;;;15.37;13.07;;;7.50;99.90;;;;;;5045974;28;20471;-85
2023/04/19 02:22:17;;;;;;;18.00;13.90;;;7.50;99.90;;;;;;5046587;28;20971;-85
2023/04/19 02:24:44;;;;;;;22.43;15.40;;;7.60;99.90;;;;;;5043756;28;20468;-85
2023/04/19 02:27:11;;;;;;;19.30;14.20;;;7.60;99.90;;;;;;5038820;28;20457;-85
2023/04/19 02:29:39;;;;;;;18.13;13.93;;;7.70;99.90;;;;;;5042643;28;21019;-85
2023/04/19 02:32:07;;;;;;;19.97;15.83;;;7.80;99.90;;;;;;5045250;28;20465;-85
2023/04/19 02:34:34;;;;;;;20.63;17.20;;;7.80;99.90;;;;;;5040504;28;20555;-85
2023/04/19 02:37:02;;;;;;;22.27;17.10;;;7.80;99.90;;;;;;5046331;28;20461;-85
2023/04/19 02:39:29;;;;;;;20.13;16.00;;;7.90;99.90;;;;;;5040269;28;20461;-85
2023/04/19 02:41:56;;;;;;;18.20;13.50;;;7.90;99.90;;;;;;5049132;28;20516;-85
2023/04/19 02:44:23;;;;;;;21.43;15.57;;;7.90;99.90;;;;;;5047717;28;20969;-85
2023/04/19 02:46:51;;;;;;;25.00;17.10;;;7.90;99.90;;;;;;5051827;28;20530;-85
2023/04/19 02:49:20;;;;;;;22.37;16.20;;;8.00;99.90;;;;;;5048304;28;20464;-85
2023/04/19 02:51:47;;;;;;;21.20;16.43;;;8.00;99.90;;;;;;5043943;28;20476;-85
2023/04/19 02:54:14;;;;;;;20.87;15.70;;;8.00;99.90;;;;;;5045581;28;20445;-85
2023/04/19 02:56:41;;;;;;;22.50;16.40;;;8.00;99.90;;;;;;5041121;28;21054;-85
2023/04/19 02:59:08;;;;;;;21.00;16.10;;;8.00;99.90;;;;;;5048726;28;20468;-85
2023/04/19 03:01:35;;;;;;;21.97;16.93;;;8.00;99.90;;;;;;5051627;28;20486;-85
2023/04/19 03:04:02;;;;;;;18.90;15.60;;;8.00;99.90;;;;;;5045327;28;20467;-85
2023/04/19 03:06:31;;;;;;;24.67;16.80;;;8.10;99.90;;;;;;5043693;28;20488;-86
2023/04/19 03:08:57;;;;;;;23.27;17.50;;;8.00;99.90;;;;;;5037789;28;20465;-85
2023/04/19 03:11:24;;;;;;;25.47;17.77;;;8.00;99.90;;;;;;5047334;28;20466;-85
2023/04/19 03:13:52;;;;;;;25.80;18.47;;;8.00;99.90;;;;;;5048205;28;20472;-85
2023/04/19 03:16:20;;;;;;;23.43;16.40;;;8.00;99.90;;;;;;5047442;28;20473;-85
2023/04/19 03:18:47;;;;;;;29.30;17.60;;;8.00;99.90;;;;;;5046749;28;20559;-85
2023/04/19 03:21:14;;;;;;;24.00;17.53;;;8.00;99.90;;;;;;5045064;28;20525;-85
2023/04/19 03:23:42;;;;;;;24.73;20.00;;;8.00;99.90;;;;;;5041520;28;20542;-85
2023/04/19 03:26:09;;;;;;;26.00;18.70;;;8.00;99.90;;;;;;5050075;28;20523;-85
2023/04/19 03:28:36;;;;;;;26.77;18.20;;;8.10;99.90;;;;;;5046057;28;20514;-86
2023/04/19 03:31:03;;;;;;;21.80;16.00;;;8.00;99.90;;;;;;5044299;28;20531;-86
2023/04/19 03:33:30;;;;;;;24.60;17.80;;;8.10;99.90;;;;;;5042811;28;20464;-85
2023/04/19 03:35:57;;;;;;;30.87;18.67;;;8.00;99.90;;;;;;5046624;28;20471;-85
2023/04/19 03:38:24;;;;;;;23.20;18.07;;;8.00;99.90;;;;;;5037074;28;20519;-85
2023/04/19 03:40:54;;;;;;;22.50;18.27;;;8.00;99.90;;;;;;5048636;28;20780;-85
2023/04/19 03:43:23;;;;;;;24.10;17.77;;;8.00;99.90;;;;;;5043627;28;20570;-85
2023/04/19 03:45:50;;;;;;;26.27;18.53;;;8.00;99.90;;;;;;5044509;28;20468;-85
2023/04/19 03:48:17;;;;;;;23.40;17.70;;;8.00;99.90;;;;;;5046647;28;20456;-85
2023/04/19 03:50:43;;;;;;;23.50;17.47;;;7.90;99.90;;;;;;5041988;28;20473;-85
2023/04/19 03:53:10;;;;;;;26.40;18.53;;;7.90;99.90;;;;;;5042868;28;20971;-85
2023/04/19 03:55:37;;;;;;;23.07;17.43;;;7.80;99.90;;;;;;5050350;28;20469;-85
2023/04/19 03:58:06;;;;;;;22.30;16.27;;;7.70;99.90;;;;;;5048581;28;20497;-85
2023/04/19 04:00:33;;;;;;;21.60;15.30;;;7.70;99.90;;;;;;5061971;28;20499;-85
2023/04/19 04:03:00;;;;;;;25.70;18.23;;;7.60;99.90;;;;;;5042451;28;20488;-85
2023/04/19 04:05:28;;;;;;;22.03;16.70;;;7.60;99.90;;;;;;5042651;28;20748;-85
2023/04/19 04:07:55;;;;;;;23.43;17.20;;;7.60;99.90;;;;;;5044160;28;20471;-85
2023/04/19 04:10:22;;;;;;;21.27;15.53;;;7.50;99.90;;;;;;5047706;28;20479;-85
2023/04/19 04:12:49;;;;;;;25.30;18.83;;;7.50;99.90;;;;;;5046604;28;20464;-85
2023/04/19 04:15:17;;;;;;;25.53;16.83;;;7.50;99.90;;;;;;5048314;28;21025;-85
2023/04/19 04:17:44;;;;;;;24.13;17.83;;;7.50;99.90;;;;;;5032498;28;21095;-85
2023/04/19 04:20:12;;;;;;;25.17;18.60;;;7.50;99.90;;;;;;5047210;28;20457;-85
2023/04/19 04:22:41;;;;;;;28.77;19.77;;;7.40;99.90;;;;;;5043553;28;20876;-85
2023/04/19 04:25:09;;;;;;;28.77;19.37;;;7.50;99.90;;;;;;5044762;28;20460;-85
2023/04/19 04:27:36;;;;;;;28.37;19.17;;;7.60;99.90;;;;;;5043666;28;20465;-85
2023/04/19 04:30:04;;;;;;;27.33;17.50;;;7.60;99.90;;;;;;5040089;28;20465;-85
2023/04/19 04:32:34;;;;;;;28.47;18.70;;;7.70;99.90;;;;;;5043397;28;20461;-85
2023/04/19 04:35:01;;;;;;;27.37;18.63;;;7.70;99.90;;;;;;5035344;28;20458;-85
2023/04/19 04:37:28;;;;;;;28.73;19.57;;;7.80;99.90;;;;;;5044793;28;20461;-86
2023/04/19 04:39:55;;;;;;;34.23;19.70;;;7.80;99.90;;;;;;5039658;28;20466;-86
2023/04/19 04:42:22;;;;;;;28.40;19.43;;;7.80;99.90;;;;;;5031361;28;20651;-85
2023/04/19 04:44:50;;;;;;;22.80;17.87;;;7.90;99.90;;;;;;5041928;28;20500;-86
2023/04/19 04:47:17;;;;;;;23.80;17.03;;;7.90;99.90;;;;;;5036281;28;20867;-86
2023/04/19 04:49:46;;;;;;;29.23;18.20;;;7.90;99.90;;;;;;5031932;28;21701;-86
2023/04/19 04:52:13;;;;;;;23.50;17.77;;;8.00;99.90;;;;;;5038395;28;20539;-86
2023/04/19 04:54:40;;;;;;;24.23;18.17;;;8.00;99.90;;;;;;5046683;28;20492;-86
2023/04/19 04:57:07;;;;;;;25.00;18.27;;;8.00;99.90;;;;;;5038594;28;20517;-86
2023/04/19 04:59:34;;;;;;;29.63;19.17;;;8.10;99.90;;;;;;5043691;28;20496;-85
2023/04/19 05:02:01;;;;;;;27.83;20.20;;;8.10;99.90;;;;;;5043174;28;20516;-85
2023/04/19 05:04:28;;;;;;;26.77;18.87;;;8.10;99.90;;;;;;5041623;28;21057;-85
2023/04/19 05:06:57;;;;;;;27.17;19.80;;;8.10;99.90;;;;;;5044681;28;20513;-86
2023/04/19 05:09:23;;;;;;;24.20;18.77;;;8.20;99.90;;;;;;5040869;28;20511;-85
2023/04/19 05:11:50;;;;;;;22.93;17.60;;;8.30;99.90;;;;;;5049564;28;20457;-86
2023/04/19 05:14:17;;;;;;;23.63;17.00;;;8.20;99.90;;;;;;5036476;28;20461;-86
2023/04/19 05:16:45;;;;;;;23.23;16.73;;;8.30;99.90;;;;;;5043588;28;20465;-86
2023/04/19 05:19:12;;;;;;;26.00;18.00;;;8.30;99.90;;;;;;5046205;28;20469;-85
2023/04/19 05:21:39;;;;;;;22.37;17.37;;;8.30;99.90;;;;;;5041265;28;20473;-86
2023/04/19 05:24:08;;;;;;;21.87;16.20;;;8.30;99.90;;;;;;5047191;28;20616;-86
2023/04/19 05:26:35;;;;;;;30.20;18.57;;;8.40;99.90;;;;;;5044323;28;20550;-86
2023/04/19 05:29:02;;;;;;;21.03;16.67;;;8.40;99.90;;;;;;5041904;28;20496;-86
2023/04/19 05:31:29;;;;;;;21.37;16.47;;;8.40;99.90;;;;;;5041713;28;20553;-86
2023/04/19 05:33:57;;;;;;;23.27;18.77;;;8.40;99.90;;;;;;5041905;28;20484;-86
2023/04/19 05:36:24;;;;;;;24.17;16.70;;;8.50;99.90;;;;;;5046313;28;20453;-85
2023/04/19 05:38:51;;;;;;;23.77;16.83;;;8.50;99.90;;;;;;5047624;28;20449;-86
2023/04/19 05:41:20;;;;;;;20.50;16.93;;;8.60;99.90;;;;;;5044245;28;21391;-86
2023/04/19 05:43:47;;;;;;;23.63;16.87;;;8.50;99.90;;;;;;5044317;28;20562;-87
2023/04/19 05:46:14;;;;;;;24.43;18.20;;;8.70;99.90;;;;;;5047433;28;20538;-86
2023/04/19 05:48:41;;;;;;;22.50;16.83;;;8.70;99.90;;;;;;5050542;28;20460;-86
2023/04/19 05:51:08;;;;;;;22.27;17.40;;;8.80;99.90;;;;;;5041431;28;20539;-87
2023/04/19 05:53:35;;;;;;;24.57;17.73;;;8.90;99.90;;;;;;5048640;28;20456;-86
2023/04/19 05:56:02;;;;;;;21.30;15.10;;;8.80;99.90;;;;;;5044059;28;20523;-87
2023/04/19 05:58:30;;;;;;;20.80;15.00;;;8.90;99.90;;;;;;5064108;28;20437;-86
2023/04/19 06:00:58;;;;;;;19.47;16.20;;;8.90;99.90;;;;;;5055080;28;20457;-87
2023/04/19 06:03:25;;;;;;;21.80;16.27;;;9.00;99.90;;;;;;5052610;28;20499;-86
2023/04/19 06:05:52;;;;;;;20.83;16.70;;;9.10;99.90;;;;;;5036852;28;20465;-86
2023/04/19 06:08:19;;;;;;;22.47;16.43;;;9.20;99.90;;;;;;5040533;28;20457;-86
2023/04/19 06:10:48;;;;;;;19.97;16.57;;;9.20;99.90;;;;;;5038720;28;20498;-80
2023/04/19 06:13:15;;;;;;;21.03;17.13;;;9.30;99.90;;;;;;5042011;28;20445;-79
2023/04/19 06:15:43;;;;;;;21.80;15.70;;;9.40;99.90;;;;;;5039883;28;20485;-79
2023/04/19 06:18:10;;;;;;;26.90;17.57;;;9.30;99.90;;;;;;5035225;28;20520;-79
2023/04/19 06:20:37;;;;;;;22.70;17.07;;;9.40;99.90;;;;;;5034276;28;20565;-79
2023/04/19 06:23:04;;;;;;;22.40;15.80;;;9.40;99.90;;;;;;5045436;28;20484;-80
2023/04/19 06:25:31;;;;;;;22.60;19.17;;;9.40;99.90;;;;;;5032763;28;21366;-78
2023/04/19 06:27:59;;;;;;;22.00;14.93;;;9.50;99.90;;;;;;5047538;28;20463;-78
2023/04/19 06:30:26;;;;;;;20.63;16.60;;;9.50;99.90;;;;;;5036041;28;20547;-78
2023/04/19 06:32:54;;;;;;;21.07;15.87;;;9.60;99.90;;;;;;5036799;28;20490;-78
2023/04/19 06:35:21;;;;;;;21.63;17.30;;;9.60;99.90;;;;;;5044499;28;20465;-78
2023/04/19 06:37:48;;;;;;;24.10;17.70;;;9.70;99.90;;;;;;5038032;28;20518;-78
2023/04/19 06:40:15;;;;;;;24.63;19.10;;;9.80;99.90;;;;;;5041001;28;20538;-78
2023/04/19 06:42:42;;;;;;;20.57;16.13;;;9.90;99.90;;;;;;5035716;28;20966;-79
2023/04/19 06:45:10;;;;;;;17.53;14.57;;;10.00;99.90;;;;;;5042828;28;20449;-78
2023/04/19 06:47:37;;;;;;;20.60;15.43;;;9.80;99.90;;;;;;5043347;28;20834;-78
2023/04/19 06:50:06;;;;;;;19.03;16.40;;;9.90;99.90;;;;;;5045168;28;20522;-78
2023/04/19 06:52:33;;;;;;;20.40;16.30;;;9.90;99.90;;;;;;5035262;28;20944;-78
2023/04/19 06:55:00;;;;;;;21.77;15.60;;;9.90;99.90;;;;;;5042510;28;20441;-78
2023/04/19 06:57:27;;;;;;;21.07;17.40;;;10.00;99.90;;;;;;5040815;28;22005;-78
2023/04/19 06:59:55;;;;;;;17.23;14.40;;;9.90;99.90;;;;;;5044892;28;20508;-78
2023/04/19 07:02:22;;;;;;;20.90;15.00;;;9.90;99.90;;;;;;5039312;28;20866;-78
2023/04/19 07:04:49;;;;;;;20.67;15.80;;;10.00;99.90;;;;;;5047451;28;20481;-78
2023/04/19 07:07:17;;;;;;;20.30;15.00;;;10.00;99.90;;;;;;5038733;28;20476;-78
2023/04/19 07:09:44;;;;;;;22.83;14.67;;;10.10;99.90;;;;;;5038501;28;20457;-78
2023/04/19 07:12:11;;;;;;;26.00;16.17;;;10.10;99.90;;;;;;5044766;28;20452;-78
2023/04/19 07:14:38;;;;;;;22.37;17.10;;;10.20;99.90;;;;;;5032026;28;20991;-78
2023/04/19 07:17:05;;;;;;;22.73;15.87;;;10.20;99.90;;;;;;5044326;28;20480;-78
2023/04/19 07:19:34;;;;;;;18.70;15.87;;;10.20;99.90;;;;;;5039368;28;20493;-78
2023/04/19 07:22:01;;;;;;;16.90;14.77;;;10.00;99.90;;;;;;5045692;28;20816;-78
2023/04/19 07:24:30;;;;;;;20.20;15.13;;;9.80;99.90;;;;;;5040944;28;20487;-79
2023/04/19 07:26:57;;;;;;;25.70;17.20;;;9.80;99.90;;;;;;5043053;28;20934;-79
2023/04/19 07:29:24;;;;;;;22.73;17.03;;;9.90;99.90;;;;;;5036357;28;21169;-79
2023/04/19 07:31:54;;;;;;;20.20;16.47;;;10.10;99.90;;;;;;5037981;28;20504;-79
2023/04/19 07:34:21;;;;;;;18.20;16.17;;;10.20;99.90;;;;;;5042758;28;20904;-80
2023/04/19 07:36:47;;;;;;;22.67;16.37;;;10.20;99.90;;;;;;5038606;28;20863;-79
2023/04/19 07:39:14;;;;;;;17.73;15.33;;;10.30;99.90;;;;;;5050466;28;20472;-79
2023/04/19 07:41:43;;;;;;;18.27;14.93;;;10.20;99.90;;;;;;5042978;28;20852;-80
2023/04/19 07:44:12;;;;;;;19.80;15.83;;;10.20;99.90;;;;;;5035228;28;20516;-79
2023/04/19 07:46:39;;;;;;;20.80;15.40;;;10.20;99.90;;;;;;5044409;28;20485;-83
2023/04/19 07:49:06;;;;;;;21.17;15.27;;;10.30;99.90;;;;;;5045968;28;20783;-79
2023/04/19 07:51:33;;;;;;;19.40;14.50;;;10.20;99.90;;;;;;5038788;28;20501;-79
2023/04/19 07:54:01;;;;;;;22.53;15.87;;;10.10;99.90;;;;;;5040414;28;20462;-79
2023/04/19 07:56:28;;;;;;;18.90;15.07;;;10.00;99.90;;;;;;5039849;28;20884;-79
2023/04/19 07:58:56;;;;;;;20.03;14.63;;;10.10;99.90;;;;;;5045422;28;20811;-79
2023/04/19 08:01:23;;;;;;;19.63;15.37;;;10.10;99.90;;;;;;5046721;28;20465;-79
2023/04/19 08:03:50;;;;;;;18.63;15.27;;;10.00;99.90;;;;;;5042563;28;20933;-80
2023/04/19 08:06:17;;;;;;;24.33;16.40;;;9.90;99.90;;;;;;5039542;28;20868;-79
2023/04/19 08:08:45;;;;;;;19.60;16.23;;;9.90;99.90;;;;;;5038305;28;20480;-80
2023/04/19 08:11:12;;;;;;;18.63;16.40;;;9.90;99.90;;;;;;5040543;28;20457;-79
2023/04/19 08:13:39;;;;;;;22.43;16.03;;;9.90;99.90;;;;;;5045085;28;20519;-79
2023/04/19 08:16:07;;;;;;;19.60;15.60;;;9.80;99.90;;;;;;5044285;28;20445;-79
2023/04/19 08:18:34;;;;;;;22.90;17.67;;;9.90;99.90;;;;;;5039674;28;20497;-79
2023/04/19 08:21:01;;;;;;;23.00;17.37;;;9.80;99.90;;;;;;5043097;28;20924;-80
2023/04/19 08:23:28;;;;;;;23.80;18.40;;;9.80;99.90;;;;;;5043213;28;20572;-80
2023/04/19 08:25:55;;;;;;;22.93;18.43;;;9.80;99.90;;;;;;5042961;28;20594;-79
2023/04/19 08:28:23;;;;;;;24.33;16.10;;;9.90;99.90;;;;;;5038026;28;20453;-79
2023/04/19 08:30:50;;;;;;;23.43;18.70;;;10.00;99.90;;;;;;5040653;28;20471;-79
2023/04/19 08:33:18;;;;;;;28.70;20.00;;;10.20;99.90;;;;;;5034712;28;20472;-80
2023/04/19 08:35:45;;;;;;;22.30;16.10;;;10.20;99.90;;;;;;5045384;28;20449;-79
2023/04/19 08:38:12;;;;;;;22.20;17.70;;;10.30;99.90;;;;;;5041258;28;20461;-80
2023/04/19 08:40:49;;;;;;;20.73;16.10;;;10.30;99.90;;;;;;5044386;28;20468;-80
2023/04/19 08:43:17;;;;;;;27.50;21.37;;;10.30;99.90;;;;;;5038737;28;20476;-80
2023/04/19 08:45:46;;;;;;;23.43;17.17;;;10.30;99.90;;;;;;5043709;28;20520;-80
2023/04/19 08:48:15;;;;;;;19.03;16.00;;;10.30;99.90;;;;;;5042923;28;20460;-80
2023/04/19 08:50:44;;;;;;;30.63;20.50;;;10.30;99.90;;;;;;5042102;28;20497;-80
2023/04/19 08:53:12;;;;;;;30.10;19.10;;;10.20;99.90;;;;;;5043321;28;20550;-80
2023/04/19 08:55:40;;;;;;;22.07;16.57;;;10.10;99.90;;;;;;5045187;28;21054;-80
2023/04/19 08:58:07;;;;;;;23.20;19.17;;;10.10;99.90;;;;;;5041627;28;20520;-80
2023/04/19 09:00:37;;;;;;;24.70;19.53;;;10.10;99.90;;;;;;5030966;28;20547;-80
2023/04/19 09:03:07;;;;;;;26.17;18.63;;;10.10;99.90;;;;;;5042167;28;20961;-80
2023/04/19 09:05:34;;;;;;;20.67;15.83;;;10.00;99.90;;;;;;5035785;28;20922;-80
2023/04/19 09:08:21;;;;;;;23.60;17.97;;;9.90;99.90;;;;;;5042811;28;20744;-80
2023/04/19 09:10:54;;;;;;;24.77;18.00;;;10.10;99.90;;;;;;5039251;28;20497;-80
2023/04/19 09:13:21;;;;;;;21.70;18.23;;;10.30;99.90;;;;;;5037425;28;20464;-80
2023/04/19 09:15:48;;;;;;;21.23;17.00;;;10.30;99.90;;;;;;5039657;28;20468;-80
2023/04/19 09:18:15;;;;;;;29.20;20.93;;;10.20;99.90;;;;;;5039692;28;20550;-80
2023/04/19 09:20:44;;;;;;;23.47;19.50;;;10.10;99.90;;;;;;5038126;28;20456;-80
2023/04/19 09:23:13;;;;;;;25.33;19.10;;;10.10;99.90;;;;;;5043311;28;20515;-80
2023/04/19 09:25:40;;;;;;;25.70;18.33;;;9.90;99.90;;;;;;5036274;28;20465;-80
2023/04/19 09:28:11;;;;;;;26.23;19.40;;;9.70;99.90;;;;;;5042523;28;20511;-79
2023/04/19 09:30:39;;;;;;;23.67;19.47;;;9.70;99.90;;;;;;5037277;28;20464;-80
2023/04/19 09:33:07;;;;;;;25.80;20.07;;;9.50;99.90;;;;;;5039736;28;20867;-80
2023/04/19 09:35:41;;;;;;;25.20;18.97;;;9.60;99.90;;;;;;5040849;28;20845;-81
2023/04/19 09:38:08;;;;;;;24.70;19.03;;;9.60;99.90;;;;;;5041346;28;20471;-80
2023/04/19 09:40:37;;;;;;;28.30;20.67;;;9.60;99.90;;;;;;5036770;28;20514;-80
2023/04/19 09:43:04;;;;;;;25.50;20.00;;;9.50;99.90;;;;;;5040282;28;20530;-80
2023/04/19 09:45:41;;;;;;;24.97;18.80;;;9.40;99.90;;;;;;5038326;28;20522;-80
2023/04/19 09:48:08;;;;;;;26.13;21.00;;;9.40;99.90;;;;;;5033522;28;20475;-80
2023/04/19 09:50:35;;;;;;;26.30;18.87;;;9.20;99.90;;;;;;5043125;28;20971;-79
2023/04/19 09:53:03;;;;;;;24.97;18.93;;;9.10;99.90;;;;;;5044647;28;20540;-80
2023/04/19 09:55:31;;;;;;;23.07;18.70;;;9.00;99.90;;;;;;5039262;28;20522;-79
2023/04/19 09:57:59;;;;;;;27.13;18.80;;;8.90;99.90;;;;;;5040109;28;20487;-79
2023/04/19 10:00:26;;;;;;;26.50;19.00;;;9.00;99.90;;;;;;5037479;28;20519;-80
2023/04/19 10:02:56;;;;;;;23.77;17.60;;;9.10;99.90;;;;;;5036407;28;20511;-80
2023/04/19 10:05:24;;;;;;;25.00;18.10;;;9.10;99.90;;;;;;5035228;28;20480;-80
2023/04/19 10:07:53;;;;;;;28.57;19.50;;;9.10;99.90;;;;;;5039218;28;20449;-80
2023/04/19 10:10:21;;;;;;;23.67;18.53;;;9.10;99.90;;;;;;5041801;28;20457;-80
2023/04/19 10:12:51;;;;;;;27.50;21.03;;;9.00;99.90;;;;;;5034574;28;20557;-81
2023/04/19 10:15:21;;;;;;;23.80;18.10;;;9.00;99.90;;;;;;5034690;28;20491;-81
2023/04/19 10:17:48;;;;;;;23.20;17.97;;;9.00;99.90;;;;;;5040934;28;20452;-81
2023/04/19 10:20:22;;;;;;;21.73;16.47;;;9.10;99.90;;;;;;5037584;28;20544;-81
2023/04/19 10:22:50;;;;;;;24.43;17.83;;;9.10;99.90;;;;;;5042635;28;20448;-81
2023/04/19 10:25:17;;;;;;;26.90;18.90;;;9.20;99.90;;;;;;5042141;28;20477;-82
2023/04/19 10:27:47;;;;;;;28.87;18.00;;;9.10;99.90;;;;;;5047653;28;21093;-82
2023/04/19 10:30:20;;;;;;;26.27;19.00;;;9.20;99.90;;;;;;5041239;28;20465;-82
2023/04/19 10:32:52;;;;;;;45.07;32.63;;;9.10;99.90;;;;;;5043339;28;20487;-82
2023/04/19 10:35:21;;;;;;;28.37;20.40;;;9.10;99.90;;;;;;5040547;28;20479;-82
2023/04/19 10:38:09;;;;;;;18.07;14.27;;;9.00;99.90;;;;;;5043403;28;20491;-82
2023/04/19 10:40:59;;;;;;;13.37;10.50;;;8.90;99.90;;;;;;5041209;28;20463;-84
2023/04/19 10:43:27;;;;;;;17.50;14.23;;;8.90;99.90;;;;;;5040767;28;20489;-84
2023/04/19 10:45:59;;;;;;;14.40;11.00;;;8.80;99.90;;;;;;5044008;28;20453;-84
2023/04/19 10:48:38;;;;;;;12.97;10.10;;;8.70;99.90;;;;;;5044867;28;20469;-83
2023/04/19 10:51:15;;;;;;;16.10;8.20;;;8.50;99.90;;;;;;5041565;28;20961;-83
2023/04/19 10:53:57;;;;;;;9.40;6.00;;;8.50;99.90;;;;;;5033703;28;20880;-84
2023/04/19 10:57:10;;;;;;;8.07;6.30;;;8.40;99.90;;;;;;5041155;28;20460;-83
2023/04/19 10:59:37;;;;;;;8.00;5.90;;;8.40;99.90;;;;;;5033758;28;20481;-83
2023/04/19 11:02:31;;;;;;;7.77;5.43;;;8.40;99.90;;;;;;5034683;28;20460;-83
2023/04/19 11:05:00;;;;;;;6.83;4.53;;;8.40;99.90;;;;;;5035024;28;20691;-83
2023/04/19 11:07:27;;;;;;;4.53;3.60;;;8.50;99.90;;;;;;5034058;28;20466;-83
2023/04/19 11:09:54;;;;;;;1.60;1.50;;;8.50;99.90;;;;;;5039522;28;20458;-83
2023/04/19 11:12:21;;;;;;;1.93;1.40;;;8.60;99.90;;;;;;5039567;28;20892;-83
2023/04/19 11:14:51;;;;;;;1.73;1.60;;;8.50;99.90;;;;;;5040716;28;20454;-83
2023/04/19 11:17:24;;;;;;;3.50;2.37;;;8.60;99.90;;;;;;5038938;28;20952;-83
2023/04/19 11:19:54;;;;;;;3.17;2.33;;;8.50;99.90;;;;;;5042863;28;20487;-83
2023/04/19 11:22:35;;;;;;;2.63;2.00;;;8.50;99.90;;;;;;5034228;28;21016;-83
2023/04/19 11:25:10;;;;;;;2.43;2.23;;;8.60;99.90;;;;;;5043394;28;20488;-83
2023/04/19 11:27:38;;;;;;;2.03;1.90;;;8.90;99.90;;;;;;5030973;28;20532;-83
2023/04/19 11:30:07;;;;;;;5.17;2.50;;;8.90;99.90;;;;;;5038454;28;20512;-83
2023/04/19 11:32:36;;;;;;;3.83;3.43;;;9.00;99.90;;;;;;5035128;28;20508;-83
2023/04/19 11:35:08;;;;;;;2.77;2.10;;;9.20;99.90;;;;;;5031255;28;20438;-83
2023/04/19 11:37:36;;;;;;;2.67;2.47;;;9.00;99.90;;;;;;5033724;28;20972;-82
2023/04/19 11:40:05;;;;;;;2.33;1.90;;;9.00;99.90;;;;;;5040629;28;20492;-83
2023/04/19 11:42:32;;;;;;;1.87;1.77;;;9.10;99.90;;;;;;5042174;28;20465;-83
2023/04/19 11:44:59;;;;;;;2.37;2.20;;;9.10;99.90;;;;;;5046761;28;20520;-82
2023/04/19 11:47:26;;;;;;;2.40;2.20;;;9.10;99.90;;;;;;5039986;28;20538;-82
2023/04/19 11:49:56;;;;;;;3.90;2.67;;;9.00;99.90;;;;;;5037734;28;20495;-82
2023/04/19 11:52:24;;;;;;;3.73;2.00;;;9.30;99.90;;;;;;5038477;28;20520;-80
2023/04/19 11:54:52;;;;;;;3.33;3.03;;;9.50;99.90;;;;;;5044961;28;20453;-80
2023/04/19 11:57:28;;;;;;;2.63;1.90;;;9.60;99.90;;;;;;5048525;28;20567;-83
2023/04/19 12:00:09;;;;;;;2.93;2.57;;;9.70;99.90;;;;;;5046341;28;20526;-83
2023/04/19 12:02:40;;;;;;;3.33;3.03;;;9.50;99.90;;;;;;5043625;28;20441;-82
2023/04/19 12:05:10;;;;;;;3.07;2.57;;;9.50;99.90;;;;;;5041398;28;20484;-83
2023/04/19 12:07:37;;;;;;;4.60;3.70;;;9.30;99.90;;;;;;5046142;28;20463;-83
2023/04/19 12:10:12;;;;;;;2.80;2.60;;;9.10;99.90;;;;;;5038948;28;20465;-83
2023/04/19 12:12:39;;;;;;;6.03;3.70;;;9.20;99.90;;;;;;5044312;28;20985;-83
2023/04/19 12:15:07;;;;;;;3.67;3.40;;;9.20;99.90;;;;;;5038994;28;20529;-83
2023/04/19 12:17:35;;;;;;;4.33;2.90;;;9.30;99.90;;;;;;5040101;28;20474;-83
2023/04/19 12:20:03;;;;;;;3.37;3.07;;;9.00;99.90;;;;;;5043555;28;20492;-83
2023/04/19 12:22:31;;;;;;;3.60;2.93;;;9.00;99.90;;;;;;5044981;28;20461;-82
2023/04/19 12:24:58;;;;;;;3.83;3.50;;;8.90;99.90;;;;;;5043509;28;20512;-82
2023/04/19 12:27:25;;;;;;;4.43;4.03;;;8.70;99.90;;;;;;5041445;28;21023;-82
2023/04/19 12:29:52;;;;;;;6.83;4.20;;;8.80;99.90;;;;;;5043474;28;20463;-82
2023/04/19 12:32:19;;;;;;;3.43;3.13;;;8.90;99.90;;;;;;5037770;28;20497;-82
2023/04/19 12:34:46;;;;;;;2.87;2.60;;;8.90;99.90;;;;;;5038190;28;20851;-82
2023/04/19 12:37:13;;;;;;;5.93;3.67;;;8.80;99.90;;;;;;5040814;28;20453;-81
2023/04/19 12:39:42;;;;;;;3.90;3.50;;;8.90;99.90;;;;;;5045470;28;20912;-82
2023/04/19 12:42:09;;;;;;;4.57;3.73;;;8.70;99.90;;;;;;5038577;28;20479;-82
2023/04/19 12:44:36;;;;;;;3.47;3.17;;;8.60;99.90;;;;;;5028212;28;21055;-83